Lourdes, Iowa
Current Conditions -  °F | °C
As of 8:15 AM on Thursday 29 Jan 2015 (Local Time) from KCCY Reporting Station
Overcast Overcast  
Wind Chill: 19°   Ceiling: 900
Heat Index: 32°   Visibility: 10mi
Dew Point: 32°   Wind: 23mph
Humidity: 100%   Direction: 320°NW
Pressure: 30.06"   Gusts: 30mph
Location:  43.2962°N, 92.3767°W
Report Text: KCCY 291415Z AUTO 32020G26KT 10SM BKN009 OVC014 00/00 A3006 RMK AO2
Loading
Personal Weather Stations






























Interactive Weather Map New forecast layout! Learn more

10-Day Weather Forecast

Advertisements
Track Severe Weather on mobile